Time;durP1;ratioP1;P1;durP2;ratioP2;P2;SDS_P1;SDS_P2;PMS_P1;PMS_P2;Temp;Humidity;BMP_temperature;BMP_pressure;BME280_temperature;BME280_humidity;BME280_pressure;Samples;Min_cycle;Max_cycle;Signal;HPM_P1;HPM_P2
2021/01/03 00:02:13;;;;;;;0.93;0.60;;;10.50;99.90;;;;;;5009473;28;20200;-27
2021/01/03 00:04:43;;;;;;;2.50;1.15;;;10.50;99.90;;;;;;5006096;28;20204;-27
2021/01/03 00:07:13;;;;;;;1.50;0.80;;;10.50;99.90;;;;;;5004008;28;20207;-28
2021/01/03 00:09:43;;;;;;;1.05;0.85;;;10.50;99.90;;;;;;5009656;28;20668;-28
2021/01/03 00:12:13;;;;;;;0.68;0.60;;;10.50;99.90;;;;;;5011929;28;20262;-27
2021/01/03 00:14:43;;;;;;;0.90;0.90;;;10.50;99.90;;;;;;5012366;28;20195;-28
2021/01/03 00:17:14;;;;;;;1.13;0.93;;;10.50;99.90;;;;;;5012906;28;20211;-28
2021/01/03 00:19:44;;;;;;;1.93;1.00;;;10.50;99.90;;;;;;5013209;28;20283;-27
2021/01/03 00:22:14;;;;;;;1.10;0.90;;;10.50;99.90;;;;;;5012829;28;20969;-26
2021/01/03 00:24:44;;;;;;;1.85;1.38;;;10.50;99.90;;;;;;5019013;28;20279;-28
2021/01/03 00:27:14;;;;;;;1.35;0.90;;;10.50;99.90;;;;;;5025312;28;20203;-27
2021/01/03 00:29:44;;;;;;;2.15;2.00;;;10.50;99.90;;;;;;5015710;28;20281;-27
2021/01/03 00:32:16;;;;;;;2.58;1.27;;;10.50;99.90;;;;;;5012399;28;20297;-27
2021/01/03 00:34:46;;;;;;;3.47;3.22;;;10.50;99.90;;;;;;5012295;28;20602;-27
2021/01/03 00:37:16;;;;;;;0.57;0.57;;;10.40;99.90;;;;;;5011504;28;20219;-27
2021/01/03 00:39:51;;;;;;;3.17;1.00;;;10.40;99.90;;;;;;5010564;28;20598;-27
2021/01/03 00:42:21;;;;;;;1.88;0.85;;;10.40;99.90;;;;;;5011513;28;20236;-27
2021/01/03 00:44:51;;;;;;;2.65;0.68;;;10.40;99.90;;;;;;5011312;28;20279;-27
2021/01/03 00:47:23;;;;;;;0.85;0.70;;;10.40;99.90;;;;;;5011381;28;20652;-27
2021/01/03 00:49:53;;;;;;;1.67;1.10;;;10.40;99.90;;;;;;5010173;28;20195;-27
2021/01/03 00:52:23;;;;;;;1.15;0.80;;;10.40;99.90;;;;;;5011283;28;20314;-28
2021/01/03 00:54:53;;;;;;;1.95;1.17;;;10.40;99.90;;;;;;5001493;28;20208;-27
2021/01/03 00:57:23;;;;;;;1.45;1.35;;;10.40;99.90;;;;;;5011144;28;20208;-27
2021/01/03 00:59:53;;;;;;;2.30;0.95;;;10.40;99.90;;;;;;5011967;28;20206;-27
2021/01/03 01:02:24;;;;;;;2.90;2.58;;;10.40;99.90;;;;;;5011420;28;20208;-27
2021/01/03 01:04:54;;;;;;;2.85;1.35;;;10.50;99.90;;;;;;5011759;28;20246;-27
2021/01/03 01:07:24;;;;;;;1.20;1.10;;;10.50;99.90;;;;;;5008979;28;20261;-27
2021/01/03 01:09:54;;;;;;;1.92;0.77;;;10.40;99.90;;;;;;5011411;28;20193;-28
2021/01/03 01:12:24;;;;;;;1.38;1.20;;;10.50;99.90;;;;;;5008214;28;20246;-27
2021/01/03 01:14:54;;;;;;;1.05;0.70;;;10.40;99.90;;;;;;5011246;28;20317;-28
2021/01/03 01:17:25;;;;;;;0.90;0.80;;;10.40;99.90;;;;;;5009942;28;20203;-29
2021/01/03 01:19:55;;;;;;;5.43;2.97;;;10.40;99.90;;;;;;5011156;28;20602;-28
2021/01/03 01:22:25;;;;;;;2.67;0.93;;;10.40;99.90;;;;;;5009879;28;20270;-29
2021/01/03 01:24:55;;;;;;;0.80;0.80;;;10.40;99.90;;;;;;5011694;28;20255;-28
2021/01/03 01:27:25;;;;;;;1.73;1.33;;;10.50;99.90;;;;;;5006977;28;20246;-28
2021/01/03 01:29:56;;;;;;;2.17;2.08;;;10.40;99.90;;;;;;5009635;28;20268;-27
2021/01/03 01:32:27;;;;;;;2.22;2.00;;;10.40;99.90;;;;;;5002516;28;20613;-27
2021/01/03 01:34:57;;;;;;;1.70;1.60;;;10.40;99.90;;;;;;5011015;28;20193;-28
2021/01/03 01:37:27;;;;;;;1.70;1.15;;;10.50;99.90;;;;;;5009350;28;20243;-27
2021/01/03 01:39:57;;;;;;;2.50;2.40;;;10.40;99.90;;;;;;4997148;28;20197;-27
2021/01/03 01:42:29;;;;;;;2.00;1.50;;;10.40;99.90;;;;;;5010872;28;20807;-27
2021/01/03 01:44:59;;;;;;;1.10;0.93;;;10.40;99.90;;;;;;5007514;28;20210;-27
2021/01/03 01:47:33;;;;;;;0.80;0.80;;;10.50;99.90;;;;;;5010365;28;20231;-27
2021/01/03 01:50:07;;;;;;;0.90;0.90;;;10.50;99.90;;;;;;5007417;28;20191;-27
2021/01/03 01:52:43;;;;;;;1.40;1.27;;;10.50;99.90;;;;;;5009499;28;20207;-27
2021/01/03 01:55:21;;;;;;;0.82;0.82;;;10.50;99.90;;;;;;5010149;28;20194;-27
2021/01/03 01:57:58;;;;;;;1.17;1.08;;;10.50;99.90;;;;;;5005523;28;20192;-27
2021/01/03 02:00:31;;;;;;;1.70;1.13;;;10.40;99.90;;;;;;5010919;28;20195;-27
2021/01/03 02:03:10;;;;;;;1.83;1.20;;;10.40;99.90;;;;;;5005529;28;20192;-27
2021/01/03 02:05:50;;;;;;;1.58;1.10;;;10.40;99.90;;;;;;5010547;28;20199;-27
2021/01/03 02:08:28;;;;;;;0.75;0.75;;;10.40;99.90;;;;;;5010225;28;20199;-27
2021/01/03 02:11:00;;;;;;;0.98;0.60;;;10.40;99.90;;;;;;5008641;28;20520;-27
2021/01/03 02:13:34;;;;;;;2.10;1.10;;;10.40;99.90;;;;;;5009704;28;20236;-27
2021/01/03 02:16:07;;;;;;;2.97;2.33;;;10.40;99.90;;;;;;5006105;28;20188;-27
2021/01/03 02:18:38;;;;;;;2.03;1.00;;;10.40;99.90;;;;;;5010359;28;20590;-28
2021/01/03 02:21:25;;;;;;;2.25;1.50;;;10.40;99.90;;;;;;5008723;28;20286;-27
2021/01/03 02:24:05;;;;;;;1.10;1.00;;;10.40;99.90;;;;;;5006997;28;20208;-27
2021/01/03 02:26:40;;;;;;;0.82;0.80;;;10.40;99.90;;;;;;5006852;28;20242;-28
2021/01/03 02:29:13;;;;;;;1.15;1.05;;;10.40;99.90;;;;;;5010138;28;20219;-27
2021/01/03 02:31:47;;;;;;;3.15;0.77;;;10.40;99.90;;;;;;5009822;28;20201;-27
2021/01/03 02:34:23;;;;;;;1.65;0.85;;;10.40;99.90;;;;;;5009204;28;20720;-27
2021/01/03 02:36:58;;;;;;;0.95;0.70;;;10.40;99.90;;;;;;5009434;28;20562;-28
2021/01/03 02:39:37;;;;;;;2.38;1.00;;;10.40;99.90;;;;;;4999872;28;20247;-27
2021/01/03 02:42:16;;;;;;;0.70;0.70;;;10.40;99.90;;;;;;5005800;28;20196;-28
2021/01/03 02:44:47;;;;;;;1.50;1.05;;;10.40;99.90;;;;;;4990354;28;20193;-28
2021/01/03 02:47:21;;;;;;;1.08;0.80;;;10.40;99.90;;;;;;5007868;28;20203;-28
2021/01/03 02:49:51;;;;;;;1.05;0.70;;;10.40;99.90;;;;;;5007686;28;20188;-28
2021/01/03 02:52:33;;;;;;;0.73;0.73;;;10.40;99.90;;;;;;5009604;28;20200;-28
2021/01/03 02:55:03;;;;;;;1.95;1.00;;;10.40;99.90;;;;;;5009157;28;20253;-28
2021/01/03 02:57:35;;;;;;;0.75;0.75;;;10.40;99.90;;;;;;5002937;28;20190;-28
2021/01/03 03:00:07;;;;;;;7.03;2.65;;;10.40;99.90;;;;;;4998151;28;20227;-28
2021/01/03 03:02:37;;;;;;;2.05;0.98;;;10.40;99.90;;;;;;5008477;28;20200;-28
2021/01/03 03:05:09;;;;;;;1.02;0.80;;;10.40;99.90;;;;;;5009527;28;20652;-28
2021/01/03 03:07:39;;;;;;;1.30;1.23;;;10.40;99.90;;;;;;5009835;28;20287;-28
2021/01/03 03:10:10;;;;;;;0.85;0.80;;;10.40;99.90;;;;;;5009493;28;20205;-28
2021/01/03 03:12:41;;;;;;;1.48;1.17;;;10.30;99.90;;;;;;5008161;28;20259;-28
2021/01/03 03:15:15;;;;;;;0.95;0.95;;;10.30;99.90;;;;;;5009286;28;20705;-28
2021/01/03 03:17:45;;;;;;;0.95;0.85;;;10.30;99.90;;;;;;5009335;28;20231;-28
2021/01/03 03:20:16;;;;;;;3.50;0.90;;;10.30;99.90;;;;;;5009299;28;20197;-28
2021/01/03 03:22:47;;;;;;;1.58;1.00;;;10.30;99.90;;;;;;5006387;28;20248;-28
2021/01/03 03:25:18;;;;;;;1.10;0.80;;;10.40;99.90;;;;;;4998639;28;20274;-28
2021/01/03 03:27:49;;;;;;;1.60;1.50;;;10.30;99.90;;;;;;5008669;28;20283;-28
2021/01/03 03:30:22;;;;;;;1.63;1.40;;;10.30;99.90;;;;;;5009250;28;20231;-28
2021/01/03 03:32:53;;;;;;;1.30;1.20;;;10.40;99.90;;;;;;5008705;28;20203;-28
2021/01/03 03:35:27;;;;;;;1.08;1.02;;;10.30;99.90;;;;;;5003734;28;20191;-28
2021/01/03 03:37:57;;;;;;;1.65;1.55;;;10.40;99.90;;;;;;5008596;28;20250;-27
2021/01/03 03:40:27;;;;;;;1.20;1.10;;;10.40;99.90;;;;;;5008831;28;20290;-27
2021/01/03 03:42:58;;;;;;;1.42;1.33;;;10.40;99.90;;;;;;5008303;28;20286;-28
2021/01/03 03:45:29;;;;;;;2.00;0.80;;;10.30;99.90;;;;;;5009836;28;20310;-27
2021/01/03 03:47:59;;;;;;;1.00;0.90;;;10.30;99.90;;;;;;5012680;28;20195;-27
2021/01/03 03:50:29;;;;;;;2.30;1.02;;;10.30;99.90;;;;;;5013039;28;20203;-28
2021/01/03 03:52:59;;;;;;;2.67;0.90;;;10.40;99.90;;;;;;5013422;28;20223;-27
2021/01/03 03:55:29;;;;;;;1.95;1.00;;;10.40;99.90;;;;;;5012671;28;20262;-29
2021/01/03 03:58:00;;;;;;;1.00;1.00;;;10.30;99.90;;;;;;5013086;28;20350;-28
2021/01/03 04:00:30;;;;;;;1.02;0.93;;;10.30;99.90;;;;;;5005464;28;20628;-28
2021/01/03 04:03:00;;;;;;;0.90;0.90;;;10.40;99.90;;;;;;5009338;28;20204;-28
2021/01/03 04:05:30;;;;;;;2.70;1.73;;;10.40;99.90;;;;;;5013339;28;20677;-29
2021/01/03 04:08:00;;;;;;;2.70;1.27;;;10.30;99.90;;;;;;5013774;28;20248;-28
2021/01/03 04:10:31;;;;;;;2.13;0.90;;;10.40;99.90;;;;;;5012665;28;20279;-28
2021/01/03 04:13:03;;;;;;;0.90;0.90;;;10.40;99.90;;;;;;5002744;28;20330;-28
2021/01/03 04:15:33;;;;;;;0.82;0.80;;;10.30;99.90;;;;;;5012313;28;20620;-28
2021/01/03 04:18:03;;;;;;;1.20;1.10;;;10.40;99.90;;;;;;5007609;28;20655;-28
2021/01/03 04:20:34;;;;;;;1.17;1.08;;;10.40;99.90;;;;;;5012250;28;20590;-28
2021/01/03 04:23:07;;;;;;;1.30;1.20;;;10.30;99.90;;;;;;5007793;28;20193;-28
2021/01/03 04:25:37;;;;;;;0.80;0.80;;;10.30;99.90;;;;;;5011497;28;20195;-28
2021/01/03 04:28:09;;;;;;;1.33;1.20;;;10.40;99.90;;;;;;5012376;28;20282;-28
2021/01/03 04:30:39;;;;;;;1.10;1.05;;;10.40;99.90;;;;;;5019539;28;20217;-28
2021/01/03 04:33:09;;;;;;;1.10;0.85;;;10.30;99.90;;;;;;5012136;28;20645;-28
2021/01/03 04:35:39;;;;;;;1.00;1.00;;;10.40;99.90;;;;;;5011738;28;20222;-28
2021/01/03 04:38:09;;;;;;;0.93;0.90;;;10.30;99.90;;;;;;5003057;28;20208;-27
2021/01/03 04:40:39;;;;;;;1.10;1.00;;;10.30;99.90;;;;;;5001441;28;20382;-28
2021/01/03 04:43:16;;;;;;;2.75;1.20;;;10.40;99.90;;;;;;5010357;28;20204;-28
2021/01/03 04:45:47;;;;;;;0.85;0.85;;;10.40;99.90;;;;;;5011333;28;20257;-28
2021/01/03 04:48:23;;;;;;;1.00;1.00;;;10.40;99.90;;;;;;5010696;28;20294;-28
2021/01/03 04:51:25;;;;;;;1.25;1.15;;;10.40;99.90;;;;;;5011614;28;20269;-28
2021/01/03 04:54:06;;;;;;;1.20;1.10;;;10.40;99.90;;;;;;5009999;28;20222;-27
2021/01/03 04:56:51;;;;;;;1.27;1.15;;;10.40;99.90;;;;;;5003432;28;20196;-27
2021/01/03 04:59:36;;;;;;;1.77;1.45;;;10.30;99.90;;;;;;5009432;28;20191;-27
2021/01/03 05:02:40;;;;;;;1.90;1.10;;;10.40;99.90;;;;;;5007758;28;20207;-28
2021/01/03 05:05:30;;;;;;;1.20;1.10;;;10.30;99.90;;;;;;5009999;28;20199;-28
2021/01/03 05:08:14;;;;;;;1.35;1.25;;;10.40;99.90;;;;;;5011526;28;20200;-27
2021/01/03 05:10:46;;;;;;;1.50;1.40;;;10.40;99.90;;;;;;5011767;28;20204;-27
2021/01/03 05:13:36;;;;;;;1.95;1.75;;;10.30;99.90;;;;;;5011296;28;20244;-28
2021/01/03 05:16:11;;;;;;;1.00;1.00;;;10.40;99.90;;;;;;5011182;28;20188;-28
2021/01/03 05:18:41;;;;;;;3.05;2.75;;;10.40;99.90;;;;;;5011261;28;20204;-28
2021/01/03 05:21:12;;;;;;;4.03;3.35;;;10.40;99.90;;;;;;5008800;28;20250;-28
2021/01/03 05:24:01;;;;;;;1.75;1.45;;;10.40;99.90;;;;;;5003756;28;20196;-28
2021/01/03 05:26:33;;;;;;;1.30;1.20;;;10.40;99.90;;;;;;5006493;28;20257;-29
2021/01/03 05:29:04;;;;;;;1.50;1.40;;;10.40;99.90;;;;;;5006592;28;20224;-28
2021/01/03 05:31:36;;;;;;;1.90;1.40;;;10.40;99.90;;;;;;5010307;28;20198;-27
2021/01/03 05:34:08;;;;;;;2.00;1.45;;;10.40;99.90;;;;;;5011608;28;20251;-27
2021/01/03 05:36:44;;;;;;;2.97;2.72;;;10.40;99.90;;;;;;5010470;28;20200;-27
2021/01/03 05:39:29;;;;;;;2.28;2.05;;;10.40;99.90;;;;;;5009401;28;20196;-27
2021/01/03 05:42:22;;;;;;;0.95;0.90;;;10.40;99.90;;;;;;4996163;28;20251;-27
2021/01/03 05:44:59;;;;;;;1.60;1.50;;;10.50;99.90;;;;;;4998787;28;20792;-27
2021/01/03 05:47:33;;;;;;;1.27;1.10;;;10.40;99.90;;;;;;5003104;28;20311;-28
2021/01/03 05:50:29;;;;;;;2.30;1.40;;;10.40;99.90;;;;;;5005391;28;20188;-27
2021/01/03 05:53:06;;;;;;;1.60;1.50;;;10.50;99.90;;;;;;5006210;28;20215;-28
2021/01/03 05:55:37;;;;;;;1.50;1.40;;;10.50;99.90;;;;;;5005398;28;20199;-28
2021/01/03 05:58:19;;;;;;;1.40;1.27;;;10.50;99.90;;;;;;5010910;28;20239;-28
2021/01/03 06:00:50;;;;;;;6.63;5.97;;;10.50;99.90;;;;;;5010045;28;20714;-28
2021/01/03 06:03:28;;;;;;;1.13;0.93;;;10.50;99.90;;;;;;5010336;28;20198;-27
2021/01/03 06:06:03;;;;;;;3.67;3.38;;;10.50;99.90;;;;;;5009214;28;20660;-27
2021/01/03 06:08:36;;;;;;;1.70;1.60;;;10.50;99.90;;;;;;5006881;28;20508;-27
2021/01/03 06:11:16;;;;;;;1.00;1.00;;;10.50;99.90;;;;;;5006014;28;20221;-28
2021/01/03 06:13:51;;;;;;;1.05;0.90;;;10.50;99.90;;;;;;5010581;28;20248;-28
2021/01/03 06:16:25;;;;;;;3.10;2.80;;;10.50;99.90;;;;;;5004821;28;20211;-28
2021/01/03 06:19:02;;;;;;;0.93;0.75;;;10.60;99.90;;;;;;5009771;28;20203;-28
2021/01/03 06:21:37;;;;;;;1.45;1.30;;;10.50;99.90;;;;;;5009869;28;20834;-28
2021/01/03 06:24:13;;;;;;;2.42;0.90;;;10.50;99.90;;;;;;5010351;28;20226;-29
2021/01/03 06:26:48;;;;;;;1.63;1.00;;;10.50;99.90;;;;;;5009331;28;20219;-29
2021/01/03 06:29:32;;;;;;;1.13;1.02;;;10.50;99.90;;;;;;5009434;28;20245;-29
2021/01/03 06:32:31;;;;;;;1.00;1.00;;;10.60;99.90;;;;;;5009946;28;20262;-29
2021/01/03 06:35:09;;;;;;;2.03;1.83;;;10.60;99.90;;;;;;5001947;28;20564;-29
2021/01/03 06:37:46;;;;;;;6.78;5.03;;;10.60;99.90;;;;;;5009587;28;20196;-28
2021/01/03 06:40:23;;;;;;;1.15;1.00;;;10.60;99.90;;;;;;5007294;28;20208;-28
2021/01/03 06:43:51;;;;;;;2.28;0.95;;;10.50;99.90;;;;;;5008882;28;20239;-28
2021/01/03 06:47:04;;;;;;;1.50;1.40;;;10.50;99.90;;;;;;5009477;28;20663;-28
2021/01/03 06:49:51;;;;;;;0.93;0.85;;;10.50;99.90;;;;;;5004524;28;20241;-28
2021/01/03 06:53:02;;;;;;;1.30;1.20;;;10.50;99.90;;;;;;5008164;28;20210;-27
2021/01/03 06:56:06;;;;;;;0.95;0.93;;;10.50;99.90;;;;;;5010076;28;20600;-27
2021/01/03 06:59:23;;;;;;;1.48;1.38;;;10.50;99.90;;;;;;5005094;28;20258;-27
2021/01/03 07:01:53;;;;;;;1.83;1.20;;;10.50;99.90;;;;;;4997332;28;20208;-28
2021/01/03 07:04:26;;;;;;;1.08;0.98;;;10.40;99.90;;;;;;5009954;28;20299;-28
2021/01/03 07:06:58;;;;;;;1.20;1.10;;;10.50;99.90;;;;;;5010070;28;20212;-28
2021/01/03 07:09:30;;;;;;;1.17;1.08;;;10.50;99.90;;;;;;5009453;28;20307;-27
2021/01/03 07:12:01;;;;;;;1.85;1.45;;;10.50;99.90;;;;;;5009516;28;20235;-28
2021/01/03 07:14:56;;;;;;;1.42;1.30;;;10.50;99.90;;;;;;5009267;28;20227;-28
2021/01/03 07:18:02;;;;;;;1.63;1.52;;;10.40;99.90;;;;;;4997253;28;20200;-28
2021/01/03 07:20:36;;;;;;;1.20;1.10;;;10.40;99.90;;;;;;5003507;28;20642;-28
2021/01/03 07:23:27;;;;;;;1.45;1.35;;;10.40;99.90;;;;;;5002580;28;20556;-28
2021/01/03 07:26:26;;;;;;;2.78;2.00;;;10.40;99.90;;;;;;5009203;28;20734;-28
2021/01/03 07:29:15;;;;;;;2.25;1.40;;;10.40;99.90;;;;;;4997819;28;20230;-28
2021/01/03 07:32:00;;;;;;;2.00;1.35;;;10.40;99.90;;;;;;5009731;28;20277;-28
2021/01/03 07:34:33;;;;;;;1.95;1.75;;;10.40;99.90;;;;;;5005060;28;20434;-29
2021/01/03 07:37:20;;;;;;;1.50;1.17;;;10.40;99.90;;;;;;4998635;28;20331;-29
2021/01/03 07:40:01;;;;;;;2.63;2.20;;;10.40;99.90;;;;;;5009788;28;20641;-28
2021/01/03 07:42:34;;;;;;;2.63;2.42;;;10.40;99.90;;;;;;5009060;28;20208;-28
2021/01/03 07:45:19;;;;;;;1.73;1.55;;;10.40;99.90;;;;;;4999306;28;20215;-29
2021/01/03 07:47:50;;;;;;;1.70;1.60;;;10.40;99.90;;;;;;5009265;28;20207;-29
2021/01/03 07:50:27;;;;;;;1.77;1.10;;;10.40;99.90;;;;;;5009442;28;20647;-29
2021/01/03 07:53:00;;;;;;;0.93;0.93;;;10.40;99.90;;;;;;5009409;28;20285;-29
2021/01/03 07:55:34;;;;;;;1.48;1.38;;;10.40;99.90;;;;;;5009540;28;20390;-29
2021/01/03 07:58:11;;;;;;;2.45;1.88;;;10.30;99.90;;;;;;5008983;28;20196;-29
2021/01/03 08:00:44;;;;;;;1.00;0.88;;;10.40;99.90;;;;;;5008776;28;20258;-29
2021/01/03 08:03:16;;;;;;;2.78;1.27;;;10.40;99.90;;;;;;5009428;28;20200;-29
2021/01/03 08:05:47;;;;;;;1.40;1.30;;;10.40;99.90;;;;;;5009188;28;20258;-29
2021/01/03 08:08:22;;;;;;;0.65;0.65;;;10.40;99.90;;;;;;5009206;28;20675;-29
2021/01/03 08:11:03;;;;;;;1.08;1.00;;;10.40;99.90;;;;;;5008599;28;20199;-29
2021/01/03 08:13:38;;;;;;;0.95;0.90;;;10.40;99.90;;;;;;4997785;28;20240;-29
2021/01/03 08:16:09;;;;;;;0.90;0.90;;;10.40;99.90;;;;;;5008216;28;20217;-29
2021/01/03 08:18:42;;;;;;;2.88;2.28;;;10.40;99.90;;;;;;5009011;28;20632;-28
2021/01/03 08:21:19;;;;;;;1.10;1.00;;;10.40;99.90;;;;;;5006916;28;20207;-27
2021/01/03 08:23:49;;;;;;;1.40;1.20;;;10.40;99.90;;;;;;5009061;28;20254;-27
2021/01/03 08:26:23;;;;;;;1.50;1.40;;;10.50;99.90;;;;;;5007049;28;20212;-28
2021/01/03 08:29:01;;;;;;;1.00;0.90;;;10.50;99.90;;;;;;5008371;28;20226;-29
2021/01/03 08:31:32;;;;;;;1.58;1.10;;;10.50;99.90;;;;;;5009124;28;20215;-27
2021/01/03 08:34:02;;;;;;;1.30;0.98;;;10.50;99.90;;;;;;5012396;28;20284;-27
2021/01/03 08:36:35;;;;;;;1.33;1.23;;;10.50;99.90;;;;;;5009323;28;20218;-28
2021/01/03 08:39:08;;;;;;;1.20;1.10;;;10.50;99.90;;;;;;5005378;28;20279;-28
2021/01/03 08:41:42;;;;;;;1.00;0.80;;;10.50;99.90;;;;;;5012245;28;20195;-28
2021/01/03 08:44:13;;;;;;;0.95;0.73;;;10.50;99.90;;;;;;5011759;28;20284;-28
2021/01/03 08:46:44;;;;;;;1.20;1.10;;;10.50;99.90;;;;;;5012291;28;20210;-28
2021/01/03 08:49:14;;;;;;;1.13;1.00;;;10.50;99.90;;;;;;5012197;28;20631;-28
2021/01/03 08:51:44;;;;;;;1.08;0.98;;;10.50;99.90;;;;;;5012239;28;20258;-27
2021/01/03 08:54:14;;;;;;;1.67;1.20;;;10.50;99.90;;;;;;5011603;28;20306;-27
2021/01/03 08:56:51;;;;;;;2.70;0.90;;;10.50;99.90;;;;;;5009717;28;20249;-27
2021/01/03 08:59:22;;;;;;;1.23;1.13;;;10.60;99.90;;;;;;5004350;28;20734;-27
2021/01/03 09:01:52;;;;;;;1.00;1.00;;;10.50;99.90;;;;;;5011983;28;20200;-27
2021/01/03 09:04:23;;;;;;;1.83;1.08;;;10.50;99.90;;;;;;5010209;28;20595;-27
2021/01/03 09:06:56;;;;;;;1.38;0.80;;;10.50;99.90;;;;;;5010891;28;20540;-28
2021/01/03 09:09:31;;;;;;;0.73;0.70;;;10.50;99.90;;;;;;5001060;28;20221;-27
2021/01/03 09:12:03;;;;;;;1.13;1.00;;;10.50;99.90;;;;;;5003159;28;20243;-28
2021/01/03 09:14:37;;;;;;;0.90;0.90;;;10.50;99.90;;;;;;5003590;28;20220;-28
2021/01/03 09:17:12;;;;;;;1.13;0.70;;;10.50;99.90;;;;;;5008327;28;20186;-28
2021/01/03 09:19:51;;;;;;;0.90;0.90;;;10.50;99.90;;;;;;5010565;28;20188;-28
2021/01/03 09:22:30;;;;;;;4.35;0.80;;;10.50;99.90;;;;;;5011548;28;20203;-28
2021/01/03 09:25:02;;;;;;;2.40;1.00;;;10.50;99.90;;;;;;5011448;28;20688;-28
2021/01/03 09:27:34;;;;;;;0.68;0.68;;;10.50;99.90;;;;;;5008369;28;20192;-28
2021/01/03 09:30:12;;;;;;;0.70;0.70;;;10.50;99.90;;;;;;5010992;28;20702;-28
2021/01/03 09:32:43;;;;;;;0.70;0.60;;;10.50;99.90;;;;;;5012128;28;20639;-28
2021/01/03 09:35:28;;;;;;;1.27;0.63;;;10.50;99.90;;;;;;5011240;28;20219;-27
2021/01/03 09:38:19;;;;;;;2.35;0.70;;;10.50;99.90;;;;;;4992422;28;20298;-28
2021/01/03 09:40:59;;;;;;;1.25;0.70;;;10.50;99.90;;;;;;5011928;28;20196;-28
2021/01/03 09:43:44;;;;;;;0.75;0.68;;;10.60;99.90;;;;;;5010035;28;20188;-28
2021/01/03 09:46:23;;;;;;;0.70;0.70;;;10.50;99.90;;;;;;5009816;28;20777;-28
2021/01/03 09:48:53;;;;;;;0.70;0.70;;;10.50;99.90;;;;;;5011684;28;20264;-28
2021/01/03 09:51:33;;;;;;;0.75;0.60;;;10.50;99.90;;;;;;4996699;28;20212;-28
2021/01/03 09:54:11;;;;;;;1.48;0.63;;;10.50;99.90;;;;;;5008765;28;20581;-28
2021/01/03 09:56:42;;;;;;;1.55;0.60;;;10.50;99.90;;;;;;5010777;28;20196;-28
2021/01/03 09:59:16;;;;;;;1.98;0.60;;;10.50;99.90;;;;;;5007424;28;20205;-28
2021/01/03 10:01:49;;;;;;;2.05;0.63;;;10.50;99.90;;;;;;5011049;28;20193;-28
2021/01/03 10:04:25;;;;;;;1.27;0.40;;;10.40;99.90;;;;;;5010780;28;20199;-28
2021/01/03 10:06:57;;;;;;;0.30;0.30;;;10.30;99.90;;;;;;5008208;28;20187;-28
2021/01/03 10:09:36;;;;;;;0.30;0.30;;;10.20;99.90;;;;;;5010876;28;20291;-28
2021/01/03 10:12:22;;;;;;;0.57;0.25;;;10.00;99.90;;;;;;5010613;28;20242;-28
2021/01/03 10:15:10;;;;;;;0.57;0.20;;;9.70;99.90;;;;;;5007384;28;20219;-28
2021/01/03 10:17:43;;;;;;;0.30;0.20;;;9.50;99.90;;;;;;5010468;28;20302;-28
2021/01/03 10:20:41;;;;;;;0.50;0.20;;;9.40;99.90;;;;;;5010389;28;20196;-28
2021/01/03 10:23:15;;;;;;;0.85;0.20;;;9.20;99.90;;;;;;5010443;28;20209;-28
2021/01/03 10:25:45;;;;;;;0.30;0.20;;;9.10;99.90;;;;;;5010727;28;20526;-28
2021/01/03 10:28:16;;;;;;;0.68;0.30;;;9.10;99.90;;;;;;5005045;28;20628;-28
2021/01/03 10:30:46;;;;;;;1.10;0.30;;;9.00;99.90;;;;;;5010298;28;20242;-28
2021/01/03 10:33:18;;;;;;;0.30;0.20;;;9.00;99.90;;;;;;5004817;28;20202;-28
2021/01/03 10:35:48;;;;;;;0.65;0.30;;;9.00;99.90;;;;;;5010251;28;20233;-28
2021/01/03 10:38:18;;;;;;;0.70;0.22;;;8.90;99.90;;;;;;5010309;28;20538;-28
2021/01/03 10:40:48;;;;;;;0.40;0.20;;;8.80;99.90;;;;;;5010489;28;20230;-27
2021/01/03 10:43:18;;;;;;;0.30;0.20;;;8.80;99.90;;;;;;5010657;28;20211;-28
2021/01/03 10:45:48;;;;;;;0.73;0.30;;;8.80;99.90;;;;;;5009881;28;20211;-27
2021/01/03 10:48:20;;;;;;;0.95;0.40;;;8.80;99.90;;;;;;5008340;28;20214;-27
2021/01/03 10:50:50;;;;;;;0.30;0.22;;;8.70;99.90;;;;;;5009800;28;20206;-27
2021/01/03 10:53:20;;;;;;;1.05;0.20;;;8.70;99.90;;;;;;5010300;28;20203;-27
2021/01/03 10:55:50;;;;;;;0.30;0.20;;;8.70;99.90;;;;;;5009072;28;20227;-27
2021/01/03 10:58:20;;;;;;;0.70;0.30;;;8.70;99.90;;;;;;5009804;28;20207;-27
2021/01/03 11:00:54;;;;;;;0.38;0.20;;;8.60;99.90;;;;;;5009363;28;20574;-27
2021/01/03 11:03:25;;;;;;;2.05;0.30;;;8.70;99.90;;;;;;5009149;28;20245;-27
2021/01/03 11:05:56;;;;;;;0.40;0.20;;;8.60;99.90;;;;;;5009760;28;20265;-27
2021/01/03 11:08:26;;;;;;;0.40;0.20;;;8.60;99.90;;;;;;5010074;28;20268;-27
2021/01/03 11:10:56;;;;;;;0.50;0.30;;;8.60;99.90;;;;;;5009622;28;20203;-27
2021/01/03 11:13:27;;;;;;;0.38;0.20;;;8.50;99.90;;;;;;5008762;28;20293;-27
2021/01/03 11:15:57;;;;;;;0.30;0.15;;;8.50;99.90;;;;;;5009447;28;20319;-27
2021/01/03 11:18:29;;;;;;;0.57;0.30;;;8.50;99.90;;;;;;5009208;28;20590;-27
2021/01/03 11:20:59;;;;;;;0.30;0.20;;;8.40;99.90;;;;;;5009796;28;20205;-28
2021/01/03 11:23:30;;;;;;;0.30;0.10;;;8.50;99.90;;;;;;5009778;28;20290;-28
2021/01/03 11:26:00;;;;;;;0.30;0.20;;;8.40;99.90;;;;;;5002508;28;20203;-28
2021/01/03 11:28:30;;;;;;;2.15;0.20;;;8.40;99.90;;;;;;5009170;28;20218;-28
2021/01/03 11:31:02;;;;;;;0.50;0.30;;;8.40;99.90;;;;;;5008901;28;20206;-28
2021/01/03 11:33:34;;;;;;;0.30;0.30;;;8.30;99.90;;;;;;5009539;28;20209;-28
2021/01/03 11:36:05;;;;;;;0.50;0.30;;;8.30;99.90;;;;;;4998872;28;20215;-28
2021/01/03 11:38:35;;;;;;;2.90;0.32;;;8.30;99.90;;;;;;4998268;28;20199;-28
2021/01/03 11:41:05;;;;;;;0.40;0.30;;;8.30;99.90;;;;;;5008549;28;20207;-28
2021/01/03 11:43:35;;;;;;;1.02;0.30;;;8.30;99.90;;;;;;5009883;28;20211;-28
2021/01/03 11:46:06;;;;;;;0.50;0.20;;;8.30;99.90;;;;;;5009019;28;20203;-28
2021/01/03 11:48:38;;;;;;;1.05;0.20;;;8.30;99.90;;;;;;5009912;28;20199;-28
2021/01/03 11:51:11;;;;;;;0.60;0.30;;;8.20;99.90;;;;;;5009001;28;20229;-28
2021/01/03 11:53:41;;;;;;;0.50;0.30;;;8.10;99.90;;;;;;5008979;28;20788;-32
2021/01/03 11:56:11;;;;;;;0.98;0.30;;;8.10;99.90;;;;;;5007535;28;20556;-28
2021/01/03 11:58:41;;;;;;;1.08;0.30;;;8.10;99.90;;;;;;5008881;28;20280;-28
2021/01/03 12:01:12;;;;;;;0.75;0.28;;;8.00;99.90;;;;;;5008169;28;20211;-27
2021/01/03 12:03:43;;;;;;;0.60;0.38;;;8.00;99.90;;;;;;5009159;28;20257;-27
2021/01/03 12:06:15;;;;;;;0.45;0.30;;;8.00;99.90;;;;;;5009613;28;20287;-27
2021/01/03 12:08:46;;;;;;;0.60;0.57;;;8.00;99.90;;;;;;5013042;28;20203;-28
2021/01/03 12:11:18;;;;;;;2.15;0.45;;;8.00;99.90;;;;;;5011756;28;20284;-27
2021/01/03 12:13:49;;;;;;;0.60;0.30;;;7.90;99.90;;;;;;5012924;28;20269;-27
2021/01/03 12:16:21;;;;;;;1.02;0.40;;;7.90;99.90;;;;;;5012837;28;20211;-27
2021/01/03 12:18:53;;;;;;;2.60;0.60;;;7.90;99.90;;;;;;5013330;28;20625;-28
2021/01/03 12:21:28;;;;;;;1.60;0.32;;;7.80;99.90;;;;;;5012395;28;20206;-28
2021/01/03 12:23:59;;;;;;;0.40;0.32;;;7.70;99.90;;;;;;4999660;28;20195;-27
2021/01/03 12:26:36;;;;;;;0.98;0.45;;;7.70;99.90;;;;;;4994614;28;20204;-27
2021/01/03 12:29:07;;;;;;;0.75;0.50;;;7.70;99.90;;;;;;5013021;28;20565;-28
2021/01/03 12:31:38;;;;;;;0.40;0.32;;;7.70;99.90;;;;;;5012495;28;20568;-28
2021/01/03 12:34:10;;;;;;;0.60;0.45;;;7.70;99.90;;;;;;5011925;28;20702;-27
2021/01/03 12:36:40;;;;;;;1.00;0.40;;;7.70;99.90;;;;;;5012591;28;20206;-27
2021/01/03 12:39:13;;;;;;;1.40;0.55;;;7.70;99.90;;;;;;5012078;28;20207;-28
2021/01/03 12:41:43;;;;;;;0.60;0.40;;;7.70;99.90;;;;;;5011971;28;20199;-28
2021/01/03 12:44:14;;;;;;;0.40;0.30;;;7.70;99.90;;;;;;5011437;28;20206;-28
2021/01/03 12:46:44;;;;;;;1.17;0.60;;;7.70;99.90;;;;;;5012885;28;20199;-28
2021/01/03 12:49:15;;;;;;;0.50;0.40;;;7.70;99.90;;;;;;5011679;28;20206;-27
2021/01/03 12:51:45;;;;;;;0.40;0.35;;;7.70;99.90;;;;;;5009348;28;20283;-27
2021/01/03 12:54:15;;;;;;;0.60;0.55;;;7.60;99.90;;;;;;5011315;28;20211;-27
2021/01/03 12:56:45;;;;;;;0.90;0.38;;;7.60;99.90;;;;;;5011015;28;20215;-27
2021/01/03 12:59:15;;;;;;;0.50;0.50;;;7.70;99.90;;;;;;5011830;28;20262;-28
2021/01/03 13:01:46;;;;;;;0.77;0.70;;;7.70;99.90;;;;;;5012092;28;20206;-28
2021/01/03 13:04:21;;;;;;;0.50;0.50;;;7.70;99.90;;;;;;5011469;28;20223;-28
2021/01/03 13:06:51;;;;;;;0.65;0.40;;;7.70;99.90;;;;;;5012051;28;20298;-28
2021/01/03 13:09:21;;;;;;;0.40;0.40;;;7.60;99.90;;;;;;5007066;28;20321;-28
2021/01/03 13:11:52;;;;;;;0.98;0.65;;;7.70;99.90;;;;;;5011071;28;20547;-28
2021/01/03 13:14:22;;;;;;;0.55;0.55;;;7.80;99.90;;;;;;5010785;28;20273;-28
2021/01/03 13:16:52;;;;;;;0.90;0.90;;;7.70;99.90;;;;;;4996738;28;20208;-28
2021/01/03 13:19:24;;;;;;;1.25;0.77;;;7.60;99.90;;;;;;5005879;28;20682;-28
2021/01/03 13:21:54;;;;;;;1.35;0.60;;;7.60;99.90;;;;;;5012007;28;20200;-28
2021/01/03 13:24:24;;;;;;;0.68;0.68;;;7.60;99.90;;;;;;5010846;28;20195;-28
2021/01/03 13:26:54;;;;;;;1.02;0.80;;;7.60;99.90;;;;;;5011104;28;20214;-28
2021/01/03 13:29:24;;;;;;;0.60;0.50;;;7.60;99.90;;;;;;5011087;28;20281;-28